Bridgetown, Barbados
Current Conditions -  °F | °C
As of 6:00 PM on Saturday 27 Dec 2014 (Local Time) from TBPB Reporting Station
Scattered Clouds Scattered Clouds  
Wind Chill: 77°   Ceiling: Unl
Heat Index: 78°   Visibility: 6mi
Dew Point: 72°   Wind: 14mph
Humidity: 83%   Direction: 40°NE
Pressure: 29.97"   Gusts: NA
Location:  13.11°N, 59.61°W
Report Text: TBPB 272200Z 04012KT 9999 SCT016 SCT036 25/22 Q1015 NOSIG
Loading
Personal Weather Stations






























Interactive Weather Map New forecast layout! Learn more

10-Day Weather Forecast

Advertisements
Track Severe Weather on mobile